Terminal Aerodrome Forecast
Issued by NWS

Home | Current Version | Previous Version | Text Only | Print | Product List | Glossary On
Versions: 1 2 3 4 5 6 7 8 9 10 11 12 13 14 15
000
FTUS43 KDVN 210520
TAFCID
TAF
KCID 210520Z 2106/2206 17012G20KT P6SM BKN150 WS020/21045KT
     FM211500 17015G21KT P6SM BKN100
     FM212000 18016G25KT P6SM BKN030
     FM220100 17014G20KT P6SM VCSH BKN025=

USA.gov is the U.S. government's official web portal to all federal, state and local government web resources and services.